Time;durP1;ratioP1;P1;durP2;ratioP2;P2;SDS_P1;SDS_P2;PMS_P1;PMS_P2;Temp;Humidity;BMP_temperature;BMP_pressure;BME280_temperature;BME280_humidity;BME280_pressure;Samples;Min_cycle;Max_cycle;Signal;HPM_P1;HPM_P2
2023/12/08 00:02:27;;;;;;;;;;;;;;;1.16;87.51;99930.09;5092695;28;19920;-74
2023/12/08 00:04:56;;;;;;;;;;;;;;;1.10;87.68;99934.88;5077059;28;19920;-74
2023/12/08 00:07:26;;;;;;;;;;;;;;;1.10;87.22;99934.88;5076595;28;19927;-74
2023/12/08 00:09:55;;;;;;;;;;;;;;;1.14;87.41;99935.84;5076712;28;19927;-74
2023/12/08 00:12:24;;;;;;;;;;;;;;;1.13;87.39;99932.47;5076606;28;20351;-75
2023/12/08 00:14:52;;;;;;;;;;;;;;;1.16;87.63;99934.25;5075381;28;19921;-75
2023/12/08 00:17:21;;;;;;;;;;;;;;;1.18;88.03;99928.50;5076332;28;19974;-75
2023/12/08 00:19:49;;;;;;;;;;;;;;;1.16;88.28;99930.09;5076584;28;20003;-75
2023/12/08 00:22:18;;;;;;;;;;;;;;;1.14;87.70;99934.19;5075629;28;19920;-75
2023/12/08 00:24:48;;;;;;;;;;;;;;;1.14;87.79;99936.72;5076881;28;19966;-75
2023/12/08 00:27:17;;;;;;;;;;;;;;;1.16;88.38;99934.25;5076350;28;20365;-75
2023/12/08 00:29:46;;;;;;;;;;;;;;;1.12;88.31;99928.25;5076454;28;20381;-75
2023/12/08 00:32:14;;;;;;;;;;;;;;;1.09;87.60;99928.13;5074999;28;20274;-75
2023/12/08 00:34:45;;;;;;;;;;;;;;;1.06;88.24;99933.03;5075514;28;19921;-75
2023/12/08 00:37:13;;;;;;;;;;;;;;;1.08;87.51;99926.41;5074987;28;20026;-75
2023/12/08 00:39:42;;;;;;;;;;;;;;;1.10;88.05;99932.38;5076616;28;20300;-76
2023/12/08 00:42:12;;;;;;;;;;;;;;;1.08;87.59;99921.38;5076117;28;20381;-76
2023/12/08 00:44:40;;;;;;;;;;;;;;;1.09;88.24;99932.28;5076049;28;19956;-76
2023/12/08 00:47:09;;;;;;;;;;;;;;;1.08;88.20;99930.59;5075947;28;19927;-76
2023/12/08 00:49:38;;;;;;;;;;;;;;;1.08;88.18;99931.41;5076225;28;19920;-75
2023/12/08 00:52:07;;;;;;;;;;;;;;;1.10;87.60;99934.88;5076211;28;19950;-75
2023/12/08 00:54:36;;;;;;;;;;;;;;;1.04;87.47;99934.63;5076439;28;19924;-75
2023/12/08 00:57:05;;;;;;;;;;;;;;;1.01;87.84;99934.50;5074574;28;19986;-75
2023/12/08 00:59:35;;;;;;;;;;;;;;;0.99;87.76;99933.56;5075639;28;20400;-76
2023/12/08 01:02:03;;;;;;;;;;;;;;;1.01;87.09;99928.63;5075553;28;19920;-76
2023/12/08 01:04:32;;;;;;;;;;;;;;;0.99;87.47;99931.06;5075940;28;19920;-76
2023/12/08 01:07:01;;;;;;;;;;;;;;;0.99;87.84;99931.06;5075475;28;19932;-76
2023/12/08 01:09:29;;;;;;;;;;;;;;;1.01;87.04;99931.97;5091431;28;19927;-76
2023/12/08 01:11:58;;;;;;;;;;;;;;;1.01;87.34;99929.47;5075751;28;19966;-76
2023/12/08 01:14:26;;;;;;;;;;;;;;;0.92;87.59;99931.59;5074348;28;19958;-76
2023/12/08 01:16:57;;;;;;;;;;;;;;;0.86;87.68;99931.38;5075381;28;19927;-76
2023/12/08 01:19:25;;;;;;;;;;;;;;;0.81;86.85;99931.97;5074568;28;20015;-75
2023/12/08 01:21:54;;;;;;;;;;;;;;;0.87;87.19;99935.56;5075580;28;20320;-76
2023/12/08 01:24:22;;;;;;;;;;;;;;;0.86;87.25;99938.91;5075619;28;20007;-75
2023/12/08 01:26:51;;;;;;;;;;;;;;;0.88;87.32;99934.78;5074254;28;19931;-76
2023/12/08 01:29:20;;;;;;;;;;;;;;;0.88;87.33;99927.25;5075046;28;19924;-75
2023/12/08 01:31:48;;;;;;;;;;;;;;;0.87;87.59;99938.09;5075139;28;19970;-75
2023/12/08 01:34:19;;;;;;;;;;;;;;;0.87;87.88;99940.59;5075378;28;19920;-75
2023/12/08 01:36:47;;;;;;;;;;;;;;;0.82;87.53;99937.03;5074959;28;20328;-75
2023/12/08 01:39:16;;;;;;;;;;;;;;;0.80;87.07;99932.75;5090972;28;19927;-75
2023/12/08 01:41:45;;;;;;;;;;;;;;;0.78;87.09;99939.34;5073827;28;19921;-75
2023/12/08 01:44:13;;;;;;;;;;;;;;;0.77;86.98;99938.50;5075411;28;19920;-75
2023/12/08 01:46:42;;;;;;;;;;;;;;;0.80;87.61;99933.59;5074481;28;19931;-75
2023/12/08 01:49:11;;;;;;;;;;;;;;;0.78;87.84;99925.16;5075293;28;19924;-75
2023/12/08 01:51:42;;;;;;;;;;;;;;;0.71;87.12;99923.19;5074984;28;19921;-75
2023/12/08 01:54:10;;;;;;;;;;;;;;;0.70;87.25;99915.59;5073515;28;19920;-75
2023/12/08 01:56:40;;;;;;;;;;;;;;;0.70;87.43;99921.44;5074664;28;20022;-75
2023/12/08 01:59:09;;;;;;;;;;;;;;;0.69;86.96;99927.28;5074898;28;19982;-75
2023/12/08 02:01:38;;;;;;;;;;;;;;;0.67;86.99;99936.41;5074169;28;19927;-75
2023/12/08 02:04:08;;;;;;;;;;;;;;;0.69;87.72;99929.81;5074722;28;19967;-75
2023/12/08 02:06:36;;;;;;;;;;;;;;;0.64;86.79;99934.63;5074726;28;19974;-75
2023/12/08 02:09:07;;;;;;;;;;;;;;;0.64;86.95;99928.75;5073565;28;19927;-74
2023/12/08 02:11:37;;;;;;;;;;;;;;;0.60;87.16;99930.25;5074625;28;19959;-74
2023/12/08 02:14:06;;;;;;;;;;;;;;;0.60;86.90;99921.88;5074640;28;19927;-74
2023/12/08 02:16:41;;;;;;;;;;;;;;;0.60;86.95;99924.41;5074247;28;20381;-74
2023/12/08 02:19:13;;;;;;;;;;;;;;;0.55;87.35;99928.38;5074594;28;20049;-74
2023/12/08 02:21:42;;;;;;;;;;;;;;;0.57;87.22;99915.09;5089448;28;19920;-74
2023/12/08 02:24:12;;;;;;;;;;;;;;;0.57;86.99;99909.19;5074518;28;19920;-76
2023/12/08 02:26:41;;;;;;;;;;;;;;;0.60;87.14;99912.69;5074618;28;19928;-76
2023/12/08 02:29:10;;;;;;;;;;;;;;;0.64;87.09;99911.16;5074172;28;19970;-76
2023/12/08 02:31:42;;;;;;;;;;;;;;;0.62;87.04;99902.72;5074132;28;19920;-76
2023/12/08 02:34:11;;;;;;;;;;;;;;;0.61;86.79;99908.53;5074671;28;19966;-76
2023/12/08 02:36:40;;;;;;;;;;;;;;;0.61;87.69;99911.03;5074320;28;19959;-76
2023/12/08 02:39:09;;;;;;;;;;;;;;;0.64;87.08;99904.50;5090033;28;19967;-76
2023/12/08 02:41:38;;;;;;;;;;;;;;;0.64;86.67;99901.13;5074488;28;20277;-76
2023/12/08 02:44:07;;;;;;;;;;;;;;;0.70;87.14;99893.81;5073202;28;19924;-75
2023/12/08 02:46:35;;;;;;;;;;;;;;;0.73;86.85;99896.47;5073210;28;19920;-76
2023/12/08 02:49:04;;;;;;;;;;;;;;;0.73;86.86;99896.47;5073953;28;19928;-76
2023/12/08 02:51:33;;;;;;;;;;;;;;;0.76;86.82;99900.75;5089710;28;19921;-76
2023/12/08 02:54:01;;;;;;;;;;;;;;;0.76;86.85;99896.59;5073760;28;19966;-74
2023/12/08 02:56:30;;;;;;;;;;;;;;;0.78;87.11;99905.06;5073908;28;19920;-75
2023/12/08 02:59:00;;;;;;;;;;;;;;;0.72;86.85;99894.75;5073696;28;19963;-75
2023/12/08 03:01:29;;;;;;;;;;;;;;;0.70;87.25;99898.84;5074058;28;19920;-75
2023/12/08 03:03:57;;;;;;;;;;;;;;;0.68;86.52;99893.78;5073867;28;19928;-75
2023/12/08 03:06:26;;;;;;;;;;;;;;;0.71;86.61;99895.56;5074020;28;19924;-76
2023/12/08 03:08:55;;;;;;;;;;;;;;;0.78;86.68;99890.00;5073747;28;19931;-75
2023/12/08 03:11:24;;;;;;;;;;;;;;;0.80;86.70;99883.38;5074012;28;20014;-76
2023/12/08 03:13:52;;;;;;;;;;;;;;;0.81;86.37;99885.09;5073579;28;19920;-76
2023/12/08 03:16:22;;;;;;;;;;;;;;;0.81;86.97;99880.06;5074007;28;19991;-76
2023/12/08 03:18:51;;;;;;;;;;;;;;;0.83;86.48;99875.09;5073687;28;19963;-76
2023/12/08 03:21:23;;;;;;;;;;;;;;;0.85;87.12;99881.03;5073609;28;19920;-75
2023/12/08 03:23:51;;;;;;;;;;;;;;;0.83;87.00;99888.53;5073952;28;19942;-74
2023/12/08 03:26:20;;;;;;;;;;;;;;;0.81;86.95;99885.09;5073911;28;19978;-75
2023/12/08 03:28:49;;;;;;;;;;;;;;;0.80;86.08;99873.31;5073515;28;19966;-75
2023/12/08 03:31:26;;;;;;;;;;;;;;;0.78;86.74;99879.06;5073597;28;20396;-75
2023/12/08 03:33:55;;;;;;;;;;;;;;;0.75;86.02;99884.84;5077293;28;19928;-75
2023/12/08 03:36:23;;;;;;;;;;;;;;;0.73;86.34;99880.53;5077307;28;19920;-75
2023/12/08 03:38:52;;;;;;;;;;;;;;;0.72;85.90;99879.69;5077394;28;19962;-75
2023/12/08 03:41:20;;;;;;;;;;;;;;;0.74;86.47;99873.09;5076340;28;19928;-75
2023/12/08 03:43:49;;;;;;;;;;;;;;;0.74;86.33;99873.09;5077092;28;19956;-75
2023/12/08 03:46:17;;;;;;;;;;;;;;;0.72;85.90;99871.31;5076576;28;19921;-73
2023/12/08 03:48:48;;;;;;;;;;;;;;;0.72;86.06;99869.63;5077314;28;20006;-72
2023/12/08 03:51:20;;;;;;;;;;;;;;;0.67;85.89;99871.13;5075416;28;20270;-72
2023/12/08 03:53:49;;;;;;;;;;;;;;;0.65;86.00;99873.56;5077864;28;19970;-73
2023/12/08 03:56:17;;;;;;;;;;;;;;;0.67;86.53;99876.16;5076912;28;19920;-73
2023/12/08 03:58:46;;;;;;;;;;;;;;;0.65;85.89;99875.19;5076973;28;20018;-73
2023/12/08 04:01:17;;;;;;;;;;;;;;;0.67;85.66;99876.16;5077133;28;20001;-73
2023/12/08 04:03:47;;;;;;;;;;;;;;;0.66;85.87;99877.78;5075451;28;20412;-72
2023/12/08 04:06:16;;;;;;;;;;;;;;;0.59;85.63;99870.81;5076726;28;20435;-72
2023/12/08 04:08:44;;;;;;;;;;;;;;;0.54;85.76;99873.91;5076714;28;19920;-73
2023/12/08 04:11:13;;;;;;;;;;;;;;;0.50;85.37;99872.06;5077012;28;19991;-72
2023/12/08 04:13:41;;;;;;;;;;;;;;;0.48;85.80;99866.13;5076773;28;19924;-73
2023/12/08 04:16:10;;;;;;;;;;;;;;;0.48;85.68;99871.16;5076730;28;20370;-72
2023/12/08 04:18:38;;;;;;;;;;;;;;;0.50;86.09;99872.06;5076470;28;19927;-72
2023/12/08 04:21:09;;;;;;;;;;;;;;;0.49;85.67;99865.31;5076443;28;19920;-72
2023/12/08 04:23:37;;;;;;;;;;;;;;;0.51;85.43;99873.78;5076717;28;20361;-72
2023/12/08 04:26:07;;;;;;;;;;;;;;;0.49;85.30;99877.88;5076856;28;19970;-72
2023/12/08 04:28:36;;;;;;;;;;;;;;;0.49;85.92;99870.34;5076991;28;19946;-72
2023/12/08 04:31:04;;;;;;;;;;;;;;;0.47;85.55;99877.81;5091894;28;20369;-72
2023/12/08 04:33:33;;;;;;;;;;;;;;;0.46;85.27;99880.25;5076312;28;19921;-72
2023/12/08 04:36:03;;;;;;;;;;;;;;;0.40;85.69;99885.03;5074901;28;19928;-72
2023/12/08 04:38:33;;;;;;;;;;;;;;;0.37;84.96;99883.25;5076609;28;19928;-72
2023/12/08 04:41:02;;;;;;;;;;;;;;;0.38;85.15;99876.56;5075180;28;20032;-72
2023/12/08 04:43:30;;;;;;;;;;;;;;;0.37;85.71;99883.25;5091355;28;19920;-72
2023/12/08 04:45:59;;;;;;;;;;;;;;;0.35;85.41;99883.97;5075904;28;19927;-72
2023/12/08 04:48:27;;;;;;;;;;;;;;;0.33;85.51;99886.44;5075944;28;19926;-72
2023/12/08 04:50:56;;;;;;;;;;;;;;;0.33;85.38;99878.03;5076226;28;20043;-72
2023/12/08 04:53:25;;;;;;;;;;;;;;;0.32;85.51;99872.16;5076192;28;19920;-72
2023/12/08 04:55:54;;;;;;;;;;;;;;;0.31;85.03;99872.09;5092019;28;19927;-72
2023/12/08 04:58:23;;;;;;;;;;;;;;;0.29;85.03;99872.00;5075983;28;19927;-72
2023/12/08 05:00:52;;;;;;;;;;;;;;;0.26;84.78;99868.53;5076340;28;19920;-72
2023/12/08 05:03:20;;;;;;;;;;;;;;;0.27;85.13;99865.22;5075463;28;20297;-72
2023/12/08 05:05:49;;;;;;;;;;;;;;;0.20;84.71;99870.75;5075943;28;20027;-72
2023/12/08 05:08:18;;;;;;;;;;;;;;;0.16;84.87;99872.28;5075527;28;19924;-72
2023/12/08 05:10:46;;;;;;;;;;;;;;;0.09;85.10;99871.94;5075564;28;19931;-72
2023/12/08 05:13:16;;;;;;;;;;;;;;;0.08;85.34;99880.25;5076101;28;19920;-72
2023/12/08 05:15:45;;;;;;;;;;;;;;;0.07;85.14;99883.59;5074258;28;19920;-72
2023/12/08 05:18:14;;;;;;;;;;;;;;;0.03;85.05;99886.72;5075594;28;19928;-72
2023/12/08 05:20:43;;;;;;;;;;;;;;;0.00;85.03;99888.31;5091030;28;20481;-72
2023/12/08 05:23:12;;;;;;;;;;;;;;;0.02;84.78;99880.00;5090901;28;20420;-72
2023/12/08 05:25:41;;;;;;;;;;;;;;;-0.05;84.90;99884.75;5074231;28;19950;-72
2023/12/08 05:28:09;;;;;;;;;;;;;;;-0.14;84.43;99884.34;5073838;28;20023;-72
2023/12/08 05:30:39;;;;;;;;;;;;;;;-0.16;85.02;99878.41;5090814;28;19990;-72
2023/12/08 05:33:08;;;;;;;;;;;;;;;-0.17;84.82;99883.34;5075203;28;19924;-72
2023/12/08 05:35:37;;;;;;;;;;;;;;;-0.17;84.92;99879.19;5074094;28;19951;-72
2023/12/08 05:38:05;;;;;;;;;;;;;;;-0.15;85.16;99872.59;5075424;28;19966;-72
2023/12/08 05:40:34;;;;;;;;;;;;;;;-0.17;85.16;99874.16;5074853;28;19920;-72
2023/12/08 05:43:02;;;;;;;;;;;;;;;-0.17;84.85;99884.19;5075195;28;19927;-72
2023/12/08 05:45:31;;;;;;;;;;;;;;;-0.22;84.87;99895.69;5074865;28;19921;-72
2023/12/08 05:48:02;;;;;;;;;;;;;;;-0.30;85.27;99891.97;5075557;28;19927;-72
2023/12/08 05:50:31;;;;;;;;;;;;;;;-0.30;85.11;99891.97;5075119;28;20392;-72
2023/12/08 05:52:59;;;;;;;;;;;;;;;-0.29;84.87;99891.16;5075040;28;19920;-72
2023/12/08 05:55:28;;;;;;;;;;;;;;;-0.28;85.18;99895.41;5074252;28;19943;-72
2023/12/08 05:57:56;;;;;;;;;;;;;;;-0.34;84.92;99892.63;5075187;28;19921;-72
2023/12/08 06:00:25;;;;;;;;;;;;;;;-0.42;85.28;99888.03;5074579;28;19921;-72
2023/12/08 06:02:54;;;;;;;;;;;;;;;-0.40;85.15;99883.94;5074419;28;19927;-72
2023/12/08 06:05:24;;;;;;;;;;;;;;;-0.36;85.02;99895.84;5074821;28;20341;-72
2023/12/08 06:07:53;;;;;;;;;;;;;;;-0.40;85.12;99889.84;5074403;28;19958;-71
2023/12/08 06:10:22;;;;;;;;;;;;;;;-0.43;85.07;99889.69;5074684;28;19920;-72
2023/12/08 06:12:52;;;;;;;;;;;;;;;-0.38;84.97;99887.38;5074734;28;20018;-72
2023/12/08 06:15:21;;;;;;;;;;;;;;;-0.48;84.66;99886.09;5074549;28;19924;-71
2023/12/08 06:17:49;;;;;;;;;;;;;;;-0.57;84.41;99885.69;5074201;28;19924;-72
2023/12/08 06:20:18;;;;;;;;;;;;;;;-0.58;84.57;99894.00;5074272;28;19959;-72
2023/12/08 06:22:48;;;;;;;;;;;;;;;-0.55;84.70;99906.66;5074455;28;19920;-72
2023/12/08 06:25:16;;;;;;;;;;;;;;;-0.60;84.84;99903.09;5074777;28;19942;-71
2023/12/08 06:27:45;;;;;;;;;;;;;;;-0.57;84.81;99914.91;5074298;28;19921;-71
2023/12/08 06:30:14;;;;;;;;;;;;;;;-0.58;84.94;99914.06;5074023;28;20267;-71
2023/12/08 06:32:42;;;;;;;;;;;;;;;-0.60;84.67;99918.13;5074332;28;19920;-71
2023/12/08 06:35:11;;;;;;;;;;;;;;;-0.62;85.04;99927.22;5073977;28;19921;-71
2023/12/08 06:37:40;;;;;;;;;;;;;;;-0.59;85.06;99927.38;5074108;28;19920;-71
2023/12/08 06:40:11;;;;;;;;;;;;;;;-0.59;85.35;99932.38;5089367;28;19924;-71
2023/12/08 06:42:39;;;;;;;;;;;;;;;-0.55;85.01;99921.69;5074368;28;19974;-71
2023/12/08 06:45:08;;;;;;;;;;;;;;;-0.48;85.30;99928.72;5072881;28;19928;-72
2023/12/08 06:47:37;;;;;;;;;;;;;;;-0.46;85.26;99928.81;5074179;28;19920;-71
2023/12/08 06:50:06;;;;;;;;;;;;;;;-0.44;85.46;99933.09;5074118;28;20266;-72
2023/12/08 06:52:35;;;;;;;;;;;;;;;-0.42;85.40;99921.50;5073752;28;19920;-72
2023/12/08 06:55:03;;;;;;;;;;;;;;;-0.33;85.88;99916.03;5073920;28;19921;-72
2023/12/08 06:57:33;;;;;;;;;;;;;;;-0.28;85.46;99915.47;5074077;28;19920;-71
2023/12/08 07:00:07;;;;;;;;;;;;;;;-0.27;85.81;99904.66;5073911;28;19927;-71
2023/12/08 07:02:36;;;;;;;;;;;;;;;-0.36;85.75;99901.72;5073676;28;19921;-71
2023/12/08 07:05:04;;;;;;;;;;;;;;;-0.37;85.71;99904.16;5073531;28;19920;-71
2023/12/08 07:07:33;;;;;;;;;;;;;;;-0.36;86.23;99901.72;5076525;28;20332;-71
2023/12/08 07:10:02;;;;;;;;;;;;;;;-0.32;85.70;99906.09;5078010;28;19924;-71
2023/12/08 07:12:31;;;;;;;;;;;;;;;-0.23;85.90;99913.16;5078072;28;20484;-72
2023/12/08 07:15:01;;;;;;;;;;;;;;;-0.15;86.36;99912.72;5077686;28;19977;-72
2023/12/08 07:17:30;;;;;;;;;;;;;;;-0.02;85.74;99912.47;5077797;28;19965;-73
2023/12/08 07:19:59;;;;;;;;;;;;;;;0.14;86.13;99915.66;5077567;28;19924;-73
2023/12/08 07:22:29;;;;;;;;;;;;;;;0.29;86.10;99916.34;5077634;28;20023;-73
2023/12/08 07:24:58;;;;;;;;;;;;;;;0.46;85.78;99923.78;5077561;28;19928;-73
2023/12/08 07:27:26;;;;;;;;;;;;;;;0.62;85.43;99932.84;5077438;28;19927;-73
2023/12/08 07:29:55;;;;;;;;;;;;;;;0.69;86.03;99927.28;5077792;28;19942;-72
2023/12/08 07:32:25;;;;;;;;;;;;;;;0.78;85.47;99932.69;5077819;28;19927;-72
2023/12/08 07:34:54;;;;;;;;;;;;;;;0.75;85.10;99925.00;5077337;28;19927;-72
2023/12/08 07:37:22;;;;;;;;;;;;;;;0.71;84.82;99918.16;5077495;28;19920;-72
2023/12/08 07:39:51;;;;;;;;;;;;;;;0.64;84.72;99913.69;5077662;28;20361;-72
2023/12/08 07:42:20;;;;;;;;;;;;;;;0.51;84.69;99906.41;5077174;28;19925;-72
2023/12/08 07:44:52;;;;;;;;;;;;;;;0.50;84.00;99887.13;5077033;28;19973;-73
2023/12/08 07:47:21;;;;;;;;;;;;;;;0.34;83.76;99873.06;5077178;28;19927;-72
2023/12/08 07:49:51;;;;;;;;;;;;;;;0.27;84.39;99863.56;5076926;28;19920;-72
2023/12/08 07:52:20;;;;;;;;;;;;;;;0.29;84.30;99886.22;5076926;28;19974;-72
2023/12/08 07:54:48;;;;;;;;;;;;;;;0.23;83.68;99921.09;5077172;28;19927;-72
2023/12/08 07:57:18;;;;;;;;;;;;;;;0.23;83.62;99926.09;5059369;28;19927;-72
2023/12/08 07:59:47;;;;;;;;;;;;;;;0.18;83.26;99908.34;5076708;28;19920;-72
2023/12/08 08:02:16;;;;;;;;;;;;;;;0.26;84.14;99922.09;5075591;28;19920;-72
2023/12/08 08:04:48;;;;;;;;;;;;;;;0.28;83.90;99937.19;5076086;28;19927;-72
2023/12/08 08:07:24;;;;;;;;;;;;;;;0.29;83.48;99931.41;5075683;28;20023;-72
2023/12/08 08:09:56;;;;;;;;;;;;;;;0.36;83.27;99928.38;5076622;28;20298;-70
2023/12/08 08:12:25;;;;;;;;;;;;;;;0.42;83.44;99933.63;5076735;28;19956;-72
2023/12/08 08:14:54;;;;;;;;;;;;;;;0.44;83.62;99932.91;5076767;28;19920;-72
2023/12/08 08:17:22;;;;;;;;;;;;;;;0.50;83.51;99949.91;5077304;28;20007;-72
2023/12/08 08:19:51;;;;;;;;;;;;;;;0.55;83.26;99946.78;5075714;28;19946;-72
2023/12/08 08:22:19;;;;;;;;;;;;;;;0.57;83.71;99939.31;5076400;28;19924;-71
2023/12/08 08:25:01;;;;;;;;;;;;;;;0.64;83.47;99946.31;5076341;28;19967;-71
2023/12/08 08:27:31;;;;;;;;;;;;;;;0.70;83.67;99941.53;5076296;28;19924;-71
2023/12/08 08:30:00;;;;;;;;;;;;;;;0.66;83.52;99939.72;5076271;28;20362;-71
2023/12/08 08:32:29;;;;;;;;;;;;;;;0.57;82.99;99934.31;5076516;28;19987;-71
2023/12/08 08:34:58;;;;;;;;;;;;;;;0.50;83.23;99942.38;5076849;28;20269;-71
2023/12/08 08:37:27;;;;;;;;;;;;;;;0.49;82.89;99925.56;5075591;28;19921;-71
2023/12/08 08:39:56;;;;;;;;;;;;;;;0.48;83.55;99918.84;5075155;28;20438;-71
2023/12/08 08:42:27;;;;;;;;;;;;;;;0.47;83.50;99922.16;5076322;28;19920;-71
2023/12/08 08:44:55;;;;;;;;;;;;;;;0.46;82.85;99920.41;5076374;28;19927;-71
2023/12/08 08:47:24;;;;;;;;;;;;;;;0.47;83.05;99923.00;5076260;28;19920;-71
2023/12/08 08:49:53;;;;;;;;;;;;;;;0.51;83.02;99918.97;5076476;28;20274;-71
2023/12/08 08:52:22;;;;;;;;;;;;;;;0.54;83.32;99919.09;5076023;28;19927;-71
2023/12/08 08:54:50;;;;;;;;;;;;;;;0.61;83.03;99918.56;5076126;28;19960;-71
2023/12/08 08:57:19;;;;;;;;;;;;;;;0.72;83.08;99924.88;5075758;28;19920;-72
2023/12/08 08:59:48;;;;;;;;;;;;;;;0.73;83.30;99925.75;5075661;28;19920;-72
2023/12/08 09:02:17;;;;;;;;;;;;;;;0.72;83.12;99924.88;5074277;28;19921;-72
2023/12/08 09:04:45;;;;;;;;;;;;;;;0.76;83.93;99915.84;5075537;28;19920;-72
2023/12/08 09:07:14;;;;;;;;;;;;;;;0.76;82.99;99924.25;5075710;28;20070;-72
2023/12/08 09:09:43;;;;;;;;;;;;;;;0.87;83.52;99923.00;5075785;28;19974;-72
2023/12/08 09:12:12;;;;;;;;;;;;;;;1.02;83.06;99926.16;5074429;28;19921;-71
2023/12/08 09:14:59;;;;;;;;;;;;;;;1.14;83.92;99919.13;5075448;28;19920;-72
2023/12/08 09:18:00;;;;;;;;;;;;;;;1.28;83.05;99918.00;5075457;28;19925;-70
2023/12/08 09:20:51;;;;;;;;;;;;;;;1.45;83.64;99920.31;5061211;28;19928;-73
2023/12/08 09:23:23;;;;;;;;;;;;;;;1.53;82.72;99922.34;5075482;28;19974;-73
2023/12/08 09:25:53;;;;;;;;;;;;;;;1.72;83.13;99916.34;5075024;28;20370;-74
2023/12/08 09:28:22;;;;;;;;;;;;;;;1.93;82.55;99904.56;5076011;28;20373;-74
2023/12/08 09:30:50;;;;;;;;;;;;;;;2.04;82.63;99911.72;5074196;28;19924;-74
2023/12/08 09:33:19;;;;;;;;;;;;;;;2.11;82.38;99897.72;5075371;28;19955;-75
2023/12/08 09:35:52;;;;;;;;;;;;;;;2.23;82.42;99900.63;5074932;28;20333;-76
2023/12/08 09:38:21;;;;;;;;;;;;;;;2.35;82.24;99891.00;5075597;28;19920;-77
2023/12/08 09:41:04;;;;;;;;;;;;;;;2.57;82.92;99890.94;5073657;28;19970;-77
2023/12/08 09:43:39;;;;;;;;;;;;;;;2.77;83.02;99891.63;5074798;28;19920;-77
2023/12/08 09:46:09;;;;;;;;;;;;;;;2.85;82.61;99889.34;5075440;28;19927;-78
2023/12/08 09:48:38;;;;;;;;;;;;;;;2.89;82.15;99896.19;5075087;28;19920;-78
2023/12/08 09:51:09;;;;;;;;;;;;;;;3.03;81.73;99889.94;5075022;28;20007;-77
2023/12/08 09:53:39;;;;;;;;;;;;;;;2.97;81.80;99884.72;5074892;28;19928;-78
2023/12/08 09:56:08;;;;;;;;;;;;;;;2.96;81.59;99878.81;5074583;28;20007;-77
2023/12/08 09:58:37;;;;;;;;;;;;;;;2.80;81.44;99868.19;5074842;28;20369;-78
2023/12/08 10:01:06;;;;;;;;;;;;;;;2.65;81.18;99866.88;5074284;28;19927;-77
2023/12/08 10:03:35;;;;;;;;;;;;;;;2.64;80.86;99860.09;5074335;28;19944;-77
2023/12/08 10:06:04;;;;;;;;;;;;;;;2.69;80.80;99858.59;5073295;28;19920;-77
2023/12/08 10:08:34;;;;;;;;;;;;;;;2.72;80.97;99848.63;5073060;28;19974;-78
2023/12/08 10:11:03;;;;;;;;;;;;;;;2.78;81.54;99852.16;5074686;28;20015;-78
2023/12/08 10:13:31;;;;;;;;;;;;;;;2.87;81.24;99842.38;5074916;28;19920;-78
2023/12/08 10:16:00;;;;;;;;;;;;;;;2.83;80.79;99835.53;5074870;28;19920;-78
2023/12/08 10:18:28;;;;;;;;;;;;;;;2.80;81.17;99841.34;5090063;28;19921;-78
2023/12/08 10:21:12;;;;;;;;;;;;;;;2.72;81.14;99843.59;5074064;28;19920;-78
2023/12/08 10:23:44;;;;;;;;;;;;;;;2.65;80.79;99836.66;5072946;28;20374;-78
2023/12/08 10:26:13;;;;;;;;;;;;;;;2.74;81.44;99848.66;5074473;28;19924;-78
2023/12/08 10:28:42;;;;;;;;;;;;;;;2.78;80.80;99844.59;5072680;28;19931;-79
2023/12/08 10:31:11;;;;;;;;;;;;;;;2.84;81.32;99847.31;5073180;28;19920;-78
2023/12/08 10:33:40;;;;;;;;;;;;;;;2.83;81.04;99838.06;5073956;28;20383;-79
2023/12/08 10:36:10;;;;;;;;;;;;;;;2.77;81.11;99835.31;5073033;28;19920;-78
2023/12/08 10:38:39;;;;;;;;;;;;;;;2.67;81.29;99840.06;5074301;28;19956;-78
2023/12/08 10:41:09;;;;;;;;;;;;;;;2.70;81.10;99835.13;5073784;28;20023;-78
2023/12/08 10:43:39;;;;;;;;;;;;;;;2.81;81.54;99827.06;5065116;28;19959;-78
2023/12/08 10:46:08;;;;;;;;;;;;;;;2.93;81.55;99832.50;5061413;28;19974;-76
2023/12/08 10:48:38;;;;;;;;;;;;;;;2.98;81.41;99830.97;5071090;28;19955;-77
2023/12/08 10:51:13;;;;;;;;;;;;;;;3.02;81.22;99823.56;5073924;28;20016;-77
2023/12/08 10:53:44;;;;;;;;;;;;;;;2.96;81.63;99822.50;5068565;28;19968;-77
2023/12/08 10:56:17;;;;;;;;;;;;;;;2.90;81.76;99823.19;5053081;28;19970;-77
2023/12/08 10:58:48;;;;;;;;;;;;;;;2.92;81.15;99820.69;5054008;28;19927;-76
2023/12/08 11:01:50;;;;;;;;;;;;;;;2.94;81.24;99829.16;5053924;28;19966;-76
2023/12/08 11:04:21;;;;;;;;;;;;;;;3.05;81.73;99822.78;5032940;28;20272;-76
2023/12/08 11:06:56;;;;;;;;;;;;;;;3.15;81.46;99819.75;5033822;28;19924;-75
2023/12/08 11:09:27;;;;;;;;;;;;;;;3.10;81.39;99811.19;5032548;28;20375;-75
2023/12/08 11:12:17;;;;;;;;;;;;;;;3.07;81.26;99811.94;5033732;28;19921;-75
2023/12/08 11:14:50;;;;;;;;;;;;;;;3.04;80.96;99808.47;5033617;28;19921;-75
2023/12/08 11:17:22;;;;;;;;;;;;;;;2.94;80.93;99803.97;5032847;28;19921;-76
2023/12/08 11:19:52;;;;;;;;;;;;;;;2.90;81.17;99803.03;5033983;28;20356;-75
2023/12/08 11:22:20;;;;;;;;;;;;;;;2.90;81.32;99809.72;5033690;28;19925;-75
2023/12/08 11:24:50;;;;;;;;;;;;;;;2.99;80.84;99807.47;5033440;28;19921;-76
2023/12/08 11:27:26;;;;;;;;;;;;;;;3.08;80.68;99797.69;5032747;28;19939;-74
2023/12/08 11:30:02;;;;;;;;;;;;;;;3.18;80.69;99804.72;5032652;28;19948;-75
2023/12/08 11:32:37;;;;;;;;;;;;;;;3.23;80.56;99805.72;5034179;28;19921;-75
2023/12/08 11:35:07;;;;;;;;;;;;;;;3.27;80.59;99803.31;5033621;28;19921;-76
2023/12/08 11:37:36;;;;;;;;;;;;;;;3.32;80.63;99803.47;5032506;28;19944;-75
2023/12/08 11:40:06;;;;;;;;;;;;;;;3.30;81.19;99793.34;5033736;28;19920;-75
2023/12/08 11:42:37;;;;;;;;;;;;;;;3.26;80.54;99794.03;5033350;28;19921;-76
2023/12/08 11:45:07;;;;;;;;;;;;;;;3.24;80.50;99783.06;5033772;28;19920;-76
2023/12/08 11:47:36;;;;;;;;;;;;;;;3.25;80.48;99782.25;5033376;28;19927;-76
2023/12/08 11:50:06;;;;;;;;;;;;;;;3.25;80.27;99771.31;5033662;28;20016;-77
2023/12/08 11:52:36;;;;;;;;;;;;;;;3.30;80.36;99765.59;5032336;28;19921;-75
2023/12/08 11:55:12;;;;;;;;;;;;;;;3.54;80.39;99773.00;5036832;28;19955;-77
2023/12/08 11:58:05;;;;;;;;;;;;;;;3.86;80.21;99766.34;5037363;28;19943;-74
2023/12/08 12:00:34;;;;;;;;;;;;;;;3.97;79.56;99762.41;5035972;28;19932;-74
2023/12/08 12:03:03;;;;;;;;;;;;;;;4.02;79.03;99761.75;5046687;28;19924;-75
2023/12/08 12:05:32;;;;;;;;;;;;;;;4.19;78.61;99768.88;5055330;28;19994;-75
2023/12/08 12:08:01;;;;;;;;;;;;;;;4.53;77.87;99762.22;5055877;28;19956;-75
2023/12/08 12:10:32;;;;;;;;;;;;;;;5.00;77.01;99750.66;5057046;28;20039;-75
2023/12/08 12:13:03;;;;;;;;;;;;;;;5.30;76.06;99743.72;5056717;28;20405;-76
2023/12/08 12:15:33;;;;;;;;;;;;;;;5.61;75.13;99747.75;5055739;28;19927;-76
2023/12/08 12:18:02;;;;;;;;;;;;;;;6.01;74.12;99744.34;5056807;28;19927;-77
2023/12/08 12:20:33;;;;;;;;;;;;;;;6.40;73.22;99739.97;5056599;28;19920;-79
2023/12/08 12:23:03;;;;;;;;;;;;;;;6.46;71.53;99740.06;5055273;28;20406;-78
2023/12/08 12:25:31;;;;;;;;;;;;;;;6.33;70.87;99733.09;5038893;28;19928;-78
2023/12/08 12:28:00;;;;;;;;;;;;;;;6.53;69.76;99746.94;5055645;28;19928;-76
2023/12/08 12:30:31;;;;;;;;;;;;;;;6.19;69.10;99739.59;5056305;28;20014;-76
2023/12/08 12:33:01;;;;;;;;;;;;;;;5.64;69.12;99747.81;5056687;28;19920;-75
2023/12/08 12:35:30;;;;;;;;;;;;;;;5.09;69.60;99740.75;5056394;28;19944;-77
2023/12/08 12:37:59;;;;;;;;;;;;;;;4.84;70.26;99747.75;5064447;28;20290;-75
2023/12/08 12:40:27;;;;;;;;;;;;;;;4.68;70.76;99754.09;5065360;28;19920;-76
2023/12/08 12:42:56;;;;;;;;;;;;;;;4.52;70.94;99749.53;5066977;28;20019;-77
2023/12/08 12:45:28;;;;;;;;;;;;;;;4.34;71.76;99749.06;5091785;28;20293;-78
2023/12/08 12:48:04;;;;;;;;;;;;;;;4.18;72.24;99747.81;5076280;28;19920;-75
2023/12/08 12:50:45;;;;;;;;;;;;;;;4.19;72.93;99748.69;5076188;28;19954;-75
2023/12/08 12:53:15;;;;;;;;;;;;;;;4.14;73.89;99745.19;5091500;28;19927;-77
2023/12/08 12:55:43;;;;;;;;;;;;;;;4.06;74.07;99748.38;5076113;28;19998;-76
2023/12/08 12:58:19;;;;;;;;;;;;;;;4.03;74.33;99748.28;5075995;28;19974;-77
2023/12/08 13:00:47;;;;;;;;;;;;;;;4.02;74.58;99751.63;5075710;28;19927;-77
2023/12/08 13:03:18;;;;;;;;;;;;;;;4.02;75.39;99746.59;5075384;28;19943;-76
2023/12/08 13:05:48;;;;;;;;;;;;;;;4.00;75.38;99738.13;5057499;28;20026;-78
2023/12/08 13:08:18;;;;;;;;;;;;;;;3.94;75.59;99743.00;5076219;28;19965;-76
2023/12/08 13:10:47;;;;;;;;;;;;;;;3.96;75.67;99740.50;5075652;28;19927;-75